createdAt,value
2023-09-07T00:02:38.674Z,15.94
2023-09-07T00:05:43.410Z,15.93
2023-09-07T00:08:47.380Z,15.90
2023-09-07T00:11:51.378Z,15.87
2023-09-07T00:14:56.012Z,15.86
2023-09-07T00:18:00.010Z,15.85
2023-09-07T00:21:04.589Z,15.83
2023-09-07T00:24:08.672Z,15.84
2023-09-07T00:27:13.046Z,15.87
2023-09-07T00:30:16.981Z,15.86
2023-09-07T00:33:21.540Z,15.84
2023-09-07T00:36:25.374Z,15.80
2023-09-07T00:39:29.365Z,15.74
2023-09-07T00:42:34.222Z,15.69
2023-09-07T00:45:39.764Z,15.65
2023-09-07T00:48:44.120Z,15.63
2023-09-07T00:51:48.614Z,15.62
2023-09-07T00:54:52.877Z,15.61
2023-09-07T00:57:57.144Z,15.58
2023-09-07T01:01:01.826Z,15.57
2023-09-07T01:04:06.287Z,15.56
2023-09-07T01:07:21.582Z,15.54
2023-09-07T01:10:25.934Z,15.55
2023-09-07T01:13:29.889Z,15.55
2023-09-07T01:16:40.096Z,15.53
2023-09-07T01:19:45.215Z,15.50
2023-09-07T01:22:49.345Z,15.47
2023-09-07T01:25:54.857Z,15.47
2023-09-07T01:28:59.447Z,15.46
2023-09-07T01:32:03.678Z,15.44
2023-09-07T01:35:11.315Z,15.42
2023-09-07T01:38:15.425Z,15.39
2023-09-07T01:41:19.381Z,15.34
2023-09-07T01:44:23.566Z,15.32
2023-09-07T01:47:27.687Z,15.32
2023-09-07T01:50:31.814Z,15.33
2023-09-07T01:53:36.053Z,15.33
2023-09-07T01:56:42.204Z,15.31
2023-09-07T01:59:46.453Z,15.30
2023-09-07T02:02:50.662Z,15.26
2023-09-07T02:05:55.331Z,15.24
2023-09-07T02:08:59.531Z,15.23
2023-09-07T02:12:05.308Z,15.24
2023-09-07T02:15:10.401Z,15.26
2023-09-07T02:18:14.503Z,15.27
2023-09-07T02:21:18.559Z,15.22
2023-09-07T02:24:22.609Z,15.13
2023-09-07T02:27:26.819Z,15.09
2023-09-07T02:30:31.110Z,15.06
2023-09-07T02:33:36.946Z,15.04
2023-09-07T02:36:41.434Z,14.99
2023-09-07T02:39:45.834Z,14.97
2023-09-07T02:42:49.682Z,14.92
2023-09-07T02:45:54.734Z,14.86
2023-09-07T02:48:59.897Z,14.74
2023-09-07T02:52:05.107Z,14.69
2023-09-07T02:55:09.444Z,14.65
2023-09-07T02:58:13.794Z,14.62
2023-09-07T03:01:22.005Z,14.60
2023-09-07T03:04:26.623Z,14.58
2023-09-07T03:07:33.977Z,14.57
2023-09-07T03:10:40.902Z,14.55
2023-09-07T03:13:45.461Z,14.54
2023-09-07T03:16:51.619Z,14.54
2023-09-07T03:19:56.153Z,14.55
2023-09-07T03:23:00.224Z,14.56
2023-09-07T03:26:04.211Z,14.57
2023-09-07T03:29:08.549Z,14.59
2023-09-07T03:32:13.144Z,14.59
2023-09-07T03:35:17.526Z,14.58
2023-09-07T03:38:21.432Z,14.58
2023-09-07T03:41:31.376Z,14.56
2023-09-07T03:44:35.674Z,14.51
2023-09-07T03:47:40.201Z,14.45
2023-09-07T03:50:44.516Z,14.45
2023-09-07T03:53:48.492Z,14.46
2023-09-07T03:56:52.634Z,14.47
2023-09-07T03:59:58.108Z,14.48
2023-09-07T04:03:02.332Z,14.47
2023-09-07T04:06:06.567Z,14.46
2023-09-07T04:09:11.547Z,14.44
2023-09-07T04:12:15.580Z,14.43
2023-09-07T04:15:19.744Z,14.43
2023-09-07T04:18:24.432Z,14.44
2023-09-07T04:21:28.855Z,14.43
2023-09-07T04:24:33.583Z,14.41
2023-09-07T04:27:39.075Z,14.40
2023-09-07T04:30:43.628Z,14.41
2023-09-07T04:33:48.312Z,14.44
2023-09-07T04:36:52.522Z,14.43
2023-09-07T04:39:57.169Z,14.42
2023-09-07T04:43:01.322Z,14.43
2023-09-07T04:46:05.538Z,14.44
2023-09-07T04:49:09.809Z,14.44
2023-09-07T04:52:13.761Z,14.49
2023-09-07T04:55:17.960Z,14.54
2023-09-07T04:58:22.162Z,14.60
2023-09-07T05:01:26.333Z,14.67
2023-09-07T05:04:31.883Z,14.72
2023-09-07T05:07:36.972Z,14.78
2023-09-07T05:10:41.147Z,14.84
2023-09-07T05:13:45.129Z,14.92
2023-09-07T05:16:49.233Z,14.98
2023-09-07T05:19:53.307Z,15.04
2023-09-07T05:22:58.013Z,15.07
2023-09-07T05:26:02.251Z,15.11
2023-09-07T05:29:06.196Z,15.15
2023-09-07T05:32:11.676Z,15.21
2023-09-07T05:35:17.857Z,15.27
2023-09-07T05:38:22.021Z,15.34
2023-09-07T05:41:26.418Z,15.40
2023-09-07T05:44:31.006Z,15.46
2023-09-07T05:47:35.108Z,15.52
2023-09-07T05:50:40.300Z,15.59
2023-09-07T05:53:44.427Z,15.68
2023-09-07T05:56:48.651Z,15.77
2023-09-07T05:59:53.484Z,15.87
2023-09-07T06:02:58.394Z,15.98
2023-09-07T06:06:03.856Z,16.08
2023-09-07T06:09:08.476Z,16.19
2023-09-07T06:12:12.648Z,16.31
2023-09-07T06:15:17.633Z,16.40
2023-09-07T06:18:22.203Z,16.53
2023-09-07T06:21:26.306Z,16.67
2023-09-07T06:24:30.458Z,16.79
2023-09-07T06:27:34.747Z,16.91
2023-09-07T06:30:39.059Z,17.04
2023-09-07T06:33:43.458Z,17.15
2023-09-07T06:36:48.530Z,17.27
2023-09-07T06:39:55.627Z,17.41
2023-09-07T06:42:59.886Z,17.52
2023-09-07T06:46:09.324Z,17.63
2023-09-07T06:49:14.090Z,17.75
2023-09-07T06:52:18.321Z,17.86
2023-09-07T06:55:22.953Z,17.97
2023-09-07T06:58:28.095Z,18.07
2023-09-07T07:01:33.661Z,18.18
2023-09-07T07:04:38.195Z,18.32
2023-09-07T07:07:42.691Z,18.44
2023-09-07T07:10:46.930Z,18.57
2023-09-07T07:13:51.729Z,18.70
2023-09-07T07:16:55.978Z,18.81
2023-09-07T07:20:00.631Z,18.93
2023-09-07T07:23:05.659Z,19.05
2023-09-07T07:26:10.215Z,19.18
2023-09-07T07:29:14.699Z,19.31
2023-09-07T07:32:18.838Z,19.42
2023-09-07T07:35:24.972Z,19.53
2023-09-07T07:38:29.594Z,19.63
2023-09-07T07:41:34.319Z,19.72
2023-09-07T07:44:38.548Z,19.80
2023-09-07T07:47:42.987Z,19.91
2023-09-07T07:50:47.239Z,20.01
2023-09-07T07:53:52.688Z,20.12
2023-09-07T07:56:57.413Z,20.21
2023-09-07T08:00:02.050Z,20.30
2023-09-07T08:03:08.486Z,20.40
2023-09-07T08:06:14.716Z,20.49
2023-09-07T08:09:19.047Z,20.59
2023-09-07T08:12:23.413Z,20.67
2023-09-07T08:15:27.591Z,20.74
2023-09-07T08:18:36.054Z,20.81
2023-09-07T08:21:43.278Z,20.89
2023-09-07T08:24:48.414Z,20.99
2023-09-07T08:27:55.068Z,21.08
2023-09-07T08:31:00.523Z,21.18
2023-09-07T08:34:06.714Z,21.27
2023-09-07T08:37:10.900Z,21.33
2023-09-07T08:40:18.320Z,21.40
2023-09-07T08:43:23.007Z,21.46
2023-09-07T08:46:28.014Z,21.52
2023-09-07T08:49:33.763Z,21.57
2023-09-07T08:52:39.393Z,21.62
2023-09-07T08:55:43.521Z,21.68
2023-09-07T08:58:50.622Z,21.72
2023-09-07T09:01:59.805Z,21.79
2023-09-07T09:05:06.026Z,21.87
2023-09-07T09:08:11.921Z,21.93
2023-09-07T09:11:17.563Z,21.99
2023-09-07T09:14:25.050Z,22.05
2023-09-07T09:17:29.147Z,22.09
2023-09-07T09:20:33.656Z,22.14
2023-09-07T09:23:38.882Z,22.19
2023-09-07T09:26:43.223Z,22.23
2023-09-07T09:29:47.165Z,22.29
2023-09-07T09:32:52.340Z,22.33
2023-09-07T09:35:57.720Z,22.38
2023-09-07T09:39:01.720Z,22.42
2023-09-07T09:42:06.040Z,22.48
2023-09-07T09:45:12.032Z,22.53
2023-09-07T09:48:17.663Z,22.61
2023-09-07T09:51:21.958Z,22.69
2023-09-07T09:54:27.570Z,22.79
2023-09-07T09:57:31.746Z,22.86
2023-09-07T10:00:39.410Z,22.90
2023-09-07T10:03:48.950Z,22.94
2023-09-07T10:07:00.546Z,22.97
2023-09-07T10:10:05.100Z,23.01
2023-09-07T10:13:09.442Z,23.03
2023-09-07T10:16:13.380Z,23.05
2023-09-07T10:19:18.711Z,23.05
2023-09-07T10:22:26.846Z,23.04
2023-09-07T10:25:33.022Z,23.04
2023-09-07T10:28:37.061Z,23.04
2023-09-07T10:31:54.067Z,23.05
2023-09-07T10:35:00.793Z,23.04
2023-09-07T10:38:06.286Z,23.04
2023-09-07T10:41:10.323Z,23.04
2023-09-07T10:44:15.187Z,23.04
2023-09-07T10:47:19.390Z,23.04
2023-09-07T10:50:23.738Z,23.05
2023-09-07T10:53:33.518Z,23.05
2023-09-07T10:56:37.709Z,23.05
2023-09-07T10:59:48.232Z,23.05
2023-09-07T11:02:52.559Z,23.04
2023-09-07T11:06:04.289Z,23.03
2023-09-07T11:09:12.346Z,23.03
2023-09-07T11:12:17.371Z,23.03
2023-09-07T11:15:22.130Z,23.05
2023-09-07T11:18:27.309Z,23.08
2023-09-07T11:21:33.975Z,23.13
2023-09-07T11:24:38.463Z,23.19
2023-09-07T11:27:42.581Z,23.25
2023-09-07T11:30:54.696Z,23.32
2023-09-07T11:33:58.824Z,23.41
2023-09-07T11:37:05.695Z,23.49
2023-09-07T11:40:13.268Z,23.57
2023-09-07T11:43:22.109Z,23.67
2023-09-07T11:46:26.083Z,23.75
2023-09-07T11:49:31.023Z,23.86
2023-09-07T11:52:35.852Z,23.94
2023-09-07T11:55:42.301Z,24.02
2023-09-07T11:58:46.519Z,24.08
2023-09-07T12:01:50.651Z,24.15
2023-09-07T12:04:55.664Z,24.17
2023-09-07T12:08:00.209Z,24.16
2023-09-07T12:11:05.380Z,24.16
2023-09-07T12:14:09.327Z,24.18
2023-09-07T12:17:13.564Z,24.20
2023-09-07T12:20:17.958Z,24.23
2023-09-07T12:23:22.027Z,24.21
2023-09-07T12:26:26.022Z,24.19
2023-09-07T12:29:30.110Z,24.22
2023-09-07T12:32:34.912Z,24.26
2023-09-07T12:35:39.605Z,24.31
2023-09-07T12:38:43.621Z,24.39
2023-09-07T12:41:47.715Z,24.48
2023-09-07T12:44:51.679Z,24.57
2023-09-07T12:47:55.692Z,24.65
2023-09-07T12:50:59.656Z,24.75
2023-09-07T12:54:04.410Z,24.85
2023-09-07T12:57:08.650Z,24.93
2023-09-07T13:00:13.192Z,24.98
2023-09-07T13:03:17.548Z,24.97
2023-09-07T13:06:21.823Z,24.95
2023-09-07T13:09:25.798Z,24.90
2023-09-07T13:12:29.726Z,24.86
2023-09-07T13:15:34.408Z,24.82
2023-09-07T13:18:39.582Z,24.77
2023-09-07T13:21:43.599Z,24.73
2023-09-07T13:24:47.581Z,24.74
2023-09-07T13:27:51.817Z,24.75
2023-09-07T13:30:55.935Z,24.77
2023-09-07T13:34:00.286Z,24.81
2023-09-07T13:37:04.495Z,24.84
2023-09-07T13:40:09.245Z,24.89
2023-09-07T13:43:13.458Z,24.98
2023-09-07T13:46:17.744Z,25.12
2023-09-07T13:49:22.476Z,25.29
2023-09-07T13:52:27.260Z,25.48
2023-09-07T13:55:32.001Z,25.65
2023-09-07T13:58:36.099Z,25.81
2023-09-07T14:01:40.548Z,25.97
2023-09-07T14:04:44.573Z,26.15
2023-09-07T14:07:49.151Z,26.31
2023-09-07T14:10:53.068Z,26.42
2023-09-07T14:13:57.371Z,26.46
2023-09-07T14:17:01.782Z,26.47
2023-09-07T14:20:06.386Z,26.52
2023-09-07T14:23:10.352Z,26.65
2023-09-07T14:26:14.760Z,26.89
2023-09-07T14:29:18.923Z,27.19
2023-09-07T14:32:22.882Z,27.45
2023-09-07T14:35:26.846Z,27.69
2023-09-07T14:38:30.997Z,28.01
2023-09-07T14:41:38.276Z,28.30
2023-09-07T14:44:42.215Z,28.56
2023-09-07T14:47:46.750Z,28.73
2023-09-07T14:50:50.708Z,28.81
2023-09-07T14:53:54.746Z,28.79
2023-09-07T14:56:58.764Z,28.70
2023-09-07T15:00:04.037Z,28.58
2023-09-07T15:03:08.127Z,28.47
2023-09-07T15:06:13.537Z,28.40
2023-09-07T15:09:17.602Z,28.36
2023-09-07T15:12:21.595Z,28.31
2023-09-07T15:15:26.235Z,28.21
2023-09-07T15:18:30.641Z,28.09
2023-09-07T15:21:34.876Z,27.95
2023-09-07T15:24:38.905Z,27.77
2023-09-07T15:27:44.759Z,27.59
2023-09-07T15:30:48.759Z,27.37
2023-09-07T15:33:53.082Z,27.18
2023-09-07T15:36:57.202Z,26.99
2023-09-07T15:40:01.546Z,26.80
2023-09-07T15:43:05.941Z,26.62
2023-09-07T15:46:10.011Z,26.46
2023-09-07T15:49:13.987Z,26.29
2023-09-07T15:52:20.292Z,26.14
2023-09-07T15:55:24.612Z,25.99
2023-09-07T15:58:28.658Z,25.85
2023-09-07T16:01:32.898Z,25.69
2023-09-07T16:04:36.972Z,25.54
2023-09-07T16:07:40.963Z,25.40
2023-09-07T16:10:44.934Z,25.25
2023-09-07T16:13:48.942Z,25.10
2023-09-07T16:16:53.213Z,24.96
2023-09-07T16:19:57.536Z,24.83
2023-09-07T16:23:01.423Z,24.69
2023-09-07T16:26:05.620Z,24.56
2023-09-07T16:29:10.817Z,24.42
2023-09-07T16:32:15.630Z,24.28
2023-09-07T16:35:19.778Z,24.15
2023-09-07T16:38:24.274Z,24.02
2023-09-07T16:41:28.217Z,23.91
2023-09-07T16:44:32.748Z,23.78
2023-09-07T16:47:36.757Z,23.65
2023-09-07T16:50:46.245Z,23.52
2023-09-07T16:53:50.324Z,23.40
2023-09-07T16:56:54.590Z,23.30
2023-09-07T16:59:58.619Z,23.19
2023-09-07T17:03:05.407Z,23.05
2023-09-07T17:06:09.609Z,22.94
2023-09-07T17:09:13.766Z,22.82
2023-09-07T17:12:18.068Z,22.71
2023-09-07T17:15:22.460Z,22.59
2023-09-07T17:18:26.627Z,22.47
2023-09-07T17:21:30.662Z,22.37
2023-09-07T17:24:34.630Z,22.25
2023-09-07T17:27:38.872Z,22.15
2023-09-07T17:30:42.839Z,22.06
2023-09-07T17:33:47.451Z,21.97
2023-09-07T17:36:52.208Z,21.90
2023-09-07T17:39:58.493Z,21.82
2023-09-07T17:43:04.890Z,21.73
2023-09-07T17:46:09.326Z,21.67
2023-09-07T17:49:13.858Z,21.58
2023-09-07T17:52:18.181Z,21.50
2023-09-07T17:55:22.089Z,21.42
2023-09-07T17:58:26.043Z,21.35
2023-09-07T18:01:30.384Z,21.29
2023-09-07T18:04:34.535Z,21.23
2023-09-07T18:07:38.453Z,21.13
2023-09-07T18:10:42.425Z,21.04
2023-09-07T18:13:49.492Z,20.97
2023-09-07T18:16:56.333Z,20.89
2023-09-07T18:20:00.490Z,20.81
2023-09-07T18:23:04.670Z,20.75
2023-09-07T18:26:15.832Z,20.69
2023-09-07T18:29:20.733Z,20.64
2023-09-07T18:32:27.714Z,20.60
2023-09-07T18:35:32.424Z,20.55
2023-09-07T18:38:36.622Z,20.48
2023-09-07T18:41:40.800Z,20.41
2023-09-07T18:44:44.759Z,20.35
2023-09-07T18:47:48.839Z,20.28
2023-09-07T18:51:01.659Z,20.23
2023-09-07T18:54:05.627Z,20.18
2023-09-07T18:57:09.879Z,20.16
2023-09-07T19:00:16.267Z,20.11
2023-09-07T19:03:20.540Z,20.05
2023-09-07T19:06:24.929Z,20.01
2023-09-07T19:09:28.964Z,19.96
2023-09-07T19:12:33.116Z,19.92
2023-09-07T19:15:39.850Z,19.89
2023-09-07T19:18:44.065Z,19.83
2023-09-07T19:21:48.059Z,19.79
2023-09-07T19:24:53.828Z,19.73
2023-09-07T19:27:57.770Z,19.69
2023-09-07T19:31:01.690Z,19.64
2023-09-07T19:34:08.863Z,19.60
2023-09-07T19:37:13.508Z,19.58
2023-09-07T19:40:18.816Z,19.56
2023-09-07T19:43:22.949Z,19.56
2023-09-07T19:46:27.850Z,19.56
2023-09-07T19:49:31.869Z,19.53
2023-09-07T19:52:35.852Z,19.50
2023-09-07T19:55:39.814Z,19.48
2023-09-07T19:58:43.790Z,19.46
2023-09-07T20:01:58.842Z,19.41
2023-09-07T20:05:02.850Z,19.38
2023-09-07T20:08:07.463Z,19.38
2023-09-07T20:11:14.288Z,19.36
2023-09-07T20:14:18.810Z,19.33
2023-09-07T20:17:22.866Z,19.33
2023-09-07T20:20:26.858Z,19.31
2023-09-07T20:23:33.660Z,19.29
2023-09-07T20:26:37.920Z,19.26
2023-09-07T20:29:41.862Z,19.24
2023-09-07T20:32:45.843Z,19.22
2023-09-07T20:35:49.857Z,19.19
2023-09-07T20:38:54.204Z,19.15
2023-09-07T20:41:58.228Z,19.12
2023-09-07T20:45:02.342Z,19.09
2023-09-07T20:48:06.547Z,19.06
2023-09-07T20:51:10.986Z,19.04
2023-09-07T20:54:15.554Z,19.01
2023-09-07T20:57:19.636Z,19.00
2023-09-07T21:00:23.794Z,19.00
2023-09-07T21:03:28.003Z,18.96
2023-09-07T21:06:32.267Z,18.94
2023-09-07T21:09:36.289Z,18.89
2023-09-07T21:12:43.601Z,18.83
2023-09-07T21:15:47.778Z,18.79
2023-09-07T21:18:53.907Z,18.73
2023-09-07T21:21:57.944Z,18.69
2023-09-07T21:25:01.907Z,18.66
2023-09-07T21:28:06.226Z,18.64
2023-09-07T21:31:11.509Z,18.63
2023-09-07T21:34:15.729Z,18.60
2023-09-07T21:37:19.814Z,18.57
2023-09-07T21:40:24.411Z,18.53
2023-09-07T21:43:29.004Z,18.51
2023-09-07T21:46:33.129Z,18.49
2023-09-07T21:49:37.314Z,18.47
2023-09-07T21:52:41.369Z,18.44
2023-09-07T21:55:45.389Z,18.39
2023-09-07T21:58:49.476Z,18.34
2023-09-07T22:01:54.290Z,18.31
2023-09-07T22:04:58.381Z,18.28
2023-09-07T22:08:02.397Z,18.24
2023-09-07T22:11:06.663Z,18.17
2023-09-07T22:14:10.554Z,18.13
2023-09-07T22:17:15.462Z,18.07
2023-09-07T22:20:19.673Z,18.03
2023-09-07T22:23:40.424Z,17.98
2023-09-07T22:26:47.768Z,17.95
2023-09-07T22:29:51.855Z,17.92
2023-09-07T22:32:56.127Z,17.89
2023-09-07T22:36:00.331Z,17.87
2023-09-07T22:39:04.793Z,17.82
2023-09-07T22:42:08.686Z,17.78
2023-09-07T22:45:13.863Z,17.73
2023-09-07T22:48:18.368Z,17.68
2023-09-07T22:51:22.289Z,17.64
2023-09-07T22:54:26.435Z,17.60
2023-09-07T22:57:30.503Z,17.56
2023-09-07T23:00:34.515Z,17.54
2023-09-07T23:03:38.565Z,17.54
2023-09-07T23:06:42.846Z,17.54
2023-09-07T23:09:47.284Z,17.53
2023-09-07T23:12:51.351Z,17.50
2023-09-07T23:15:55.334Z,17.45
2023-09-07T23:18:59.940Z,17.41
2023-09-07T23:22:04.300Z,17.40
2023-09-07T23:25:09.816Z,17.37
2023-09-07T23:28:13.800Z,17.36
2023-09-07T23:31:19.028Z,17.35
2023-09-07T23:34:23.168Z,17.34
2023-09-07T23:37:27.091Z,17.32
2023-09-07T23:40:31.039Z,17.30
2023-09-07T23:43:35.096Z,17.28
2023-09-07T23:46:39.066Z,17.28
2023-09-07T23:49:43.069Z,17.24
2023-09-07T23:52:46.986Z,17.20
2023-09-07T23:55:50.920Z,17.19
2023-09-07T23:58:54.898Z,17.18
